createdAt,value
2018-09-14T00:01:00.705Z,50.65
2018-09-14T00:02:10.129Z,50.16
2018-09-14T00:03:19.542Z,50.26
2018-09-14T00:04:29.458Z,50.16
2018-09-14T00:05:39.140Z,50.35
2018-09-14T00:06:48.821Z,50.45
2018-09-14T00:07:58.239Z,50.55
2018-09-14T00:09:07.937Z,50.16
2018-09-14T00:10:17.415Z,50.35
2018-09-14T00:11:26.878Z,50.35
2018-09-14T00:12:36.078Z,50.35
2018-09-14T00:13:45.758Z,50.26
2018-09-14T00:14:55.444Z,50.35
2018-09-14T00:16:04.916Z,50.35
2018-09-14T00:17:14.666Z,50.35
2018-09-14T00:18:24.343Z,50.35
2018-09-14T00:19:34.026Z,50.35
2018-09-14T00:20:43.468Z,50.45
2018-09-14T00:21:52.653Z,50.26
2018-09-14T00:23:01.575Z,50.35
2018-09-14T00:24:11.272Z,50.26
2018-09-14T00:25:20.974Z,50.35
2018-09-14T00:26:30.415Z,50.26
2018-09-14T00:27:39.336Z,50.35
2018-09-14T00:28:48.816Z,50.35
2018-09-14T00:29:57.985Z,50.26
2018-09-14T00:31:07.164Z,50.16
2018-09-14T00:32:17.101Z,50.16
2018-09-14T00:33:26.287Z,50.35
2018-09-14T00:34:35.476Z,50.45
2018-09-14T00:35:44.901Z,50.35
2018-09-14T00:36:54.067Z,50.35
2018-09-14T00:38:03.758Z,50.55
2018-09-14T00:39:13.769Z,50.84
2018-09-14T00:40:22.933Z,51.01
2018-09-14T00:41:32.356Z,50.71
2018-09-14T00:42:42.037Z,51.03
2018-09-14T00:43:51.271Z,50.71
2018-09-14T00:45:00.700Z,50.91
2018-09-14T00:46:10.704Z,50.71
2018-09-14T00:47:19.867Z,50.71
2018-09-14T00:48:29.561Z,50.91
2018-09-14T00:49:38.986Z,50.71
2018-09-14T00:50:48.424Z,50.81
2018-09-14T00:51:57.859Z,50.81
2018-09-14T00:53:06.762Z,50.91
2018-09-14T00:54:16.444Z,50.81
2018-09-14T00:55:26.403Z,50.71
2018-09-14T00:56:36.088Z,50.81
2018-09-14T00:57:45.249Z,50.71
2018-09-14T00:58:54.682Z,50.71
2018-09-14T01:00:04.114Z,50.81
2018-09-14T01:01:14.053Z,50.91
2018-09-14T01:02:23.463Z,50.62
2018-09-14T01:03:32.884Z,50.71
2018-09-14T01:04:42.293Z,50.91
2018-09-14T01:05:52.033Z,50.71
2018-09-14T01:07:00.936Z,50.71
2018-09-14T01:08:10.368Z,50.71
2018-09-14T01:09:19.552Z,50.62
2018-09-14T01:10:28.733Z,50.81
2018-09-14T01:11:38.161Z,50.71
2018-09-14T01:12:47.600Z,51.1
2018-09-14T01:13:56.254Z,50.43
2018-09-14T01:15:05.694Z,50.81
2018-09-14T01:16:14.852Z,50.81
2018-09-14T01:17:24.137Z,50.43
2018-09-14T01:18:33.377Z,50.33
2018-09-14T01:19:43.337Z,50.81
2018-09-14T01:20:53.292Z,50.81
2018-09-14T01:22:02.509Z,51.01
2018-09-14T01:23:11.773Z,50.91
2018-09-14T01:24:20.950Z,50.91
2018-09-14T01:25:30.630Z,50.62
2018-09-14T01:26:39.799Z,50.71
2018-09-14T01:27:49.238Z,51.01
2018-09-14T01:28:58.653Z,50.81
2018-09-14T01:30:08.089Z,50.81
2018-09-14T01:31:17.501Z,50.81
2018-09-14T01:32:26.657Z,50.71
2018-09-14T01:33:35.655Z,50.81
2018-09-14T01:34:44.293Z,50.71
2018-09-14T01:35:53.990Z,50.52
2018-09-14T01:37:03.136Z,50.81
2018-09-14T01:38:12.641Z,50.71
2018-09-14T01:39:21.354Z,50.81
2018-09-14T01:40:30.513Z,51.01
2018-09-14T01:41:39.678Z,50.71
2018-09-14T01:42:49.357Z,50.71
2018-09-14T01:43:58.820Z,50.81
2018-09-14T01:45:08.514Z,50.81
2018-09-14T01:46:17.538Z,50.91
2018-09-14T01:47:26.965Z,50.81
2018-09-14T01:48:36.454Z,50.81
2018-09-14T01:49:46.412Z,50.81
2018-09-14T01:50:56.405Z,50.71
2018-09-14T01:52:05.825Z,50.79
2018-09-14T01:53:14.746Z,50.81
2018-09-14T01:54:23.918Z,50.81
2018-09-14T01:55:33.341Z,50.81
2018-09-14T01:56:42.512Z,50.98
2018-09-14T01:57:51.946Z,50.98
2018-09-14T01:59:00.863Z,50.81
2018-09-14T02:00:10.542Z,50.71
2018-09-14T02:01:19.975Z,50.69
2018-09-14T02:02:29.553Z,50.81
2018-09-14T02:03:38.722Z,50.81
2018-09-14T02:04:47.911Z,50.81
2018-09-14T02:05:57.381Z,50.62
2018-09-14T02:07:06.546Z,50.81
2018-09-14T02:08:16.221Z,50.98
2018-09-14T02:09:25.390Z,50.91
2018-09-14T02:10:34.829Z,50.71
2018-09-14T02:11:44.285Z,51.01
2018-09-14T02:12:53.714Z,51.01
2018-09-14T02:14:03.143Z,50.81
2018-09-14T02:15:12.322Z,50.81
2018-09-14T02:16:21.250Z,50.81
2018-09-14T02:17:30.191Z,50.71
2018-09-14T02:18:39.670Z,50.91
2018-09-14T02:19:49.089Z,50.91
2018-09-14T02:20:58.776Z,50.81
2018-09-14T02:22:07.687Z,50.71
2018-09-14T02:23:17.122Z,50.81
2018-09-14T02:24:26.299Z,50.71
2018-09-14T02:25:36.108Z,50.59
2018-09-14T02:26:45.767Z,50.91
2018-09-14T02:27:55.193Z,50.98
2018-09-14T02:29:04.611Z,50.81
2018-09-14T02:30:13.792Z,50.81
2018-09-14T02:31:23.928Z,50.71
2018-09-14T02:32:33.637Z,50.91
2018-09-14T02:33:42.812Z,50.89
2018-09-14T02:34:52.774Z,50.79
2018-09-14T02:36:02.459Z,50.79
2018-09-14T02:37:12.149Z,50.69
2018-09-14T02:38:21.848Z,50.98
2018-09-14T02:39:31.018Z,50.69
2018-09-14T02:40:40.956Z,50.89
2018-09-14T02:41:50.389Z,50.79
2018-09-14T02:42:59.567Z,50.59
2018-09-14T02:44:09.253Z,50.89
2018-09-14T02:45:18.681Z,51.07
2018-09-14T02:46:28.363Z,50.98
2018-09-14T02:47:37.809Z,50.59
2018-09-14T02:48:46.726Z,51.17
2018-09-14T02:49:56.406Z,50.89
2018-09-14T02:51:05.563Z,51.07
2018-09-14T02:52:15.532Z,51.17
2018-09-14T02:53:25.206Z,51.07
2018-09-14T02:54:34.363Z,50.79
2018-09-14T02:55:43.545Z,51.07
2018-09-14T02:56:52.719Z,50.98
2018-09-14T02:58:01.698Z,50.89
2018-09-14T03:01:36.738Z,51.07
2018-09-14T03:02:46.154Z,50.89
2018-09-14T03:03:55.829Z,50.69
2018-09-14T03:05:05.526Z,50.79
2018-09-14T03:06:14.958Z,50.98
2018-09-14T03:07:24.641Z,50.89
2018-09-14T03:08:34.061Z,50.98
2018-09-14T03:09:43.496Z,50.98
2018-09-14T03:10:53.367Z,50.69
2018-09-14T03:12:03.045Z,50.79
2018-09-14T03:13:12.222Z,50.69
2018-09-14T03:14:21.668Z,50.69
2018-09-14T03:15:30.839Z,50.79
2018-09-14T03:16:40.529Z,50.98
2018-09-14T03:17:49.968Z,50.89
2018-09-14T03:18:59.669Z,50.79
2018-09-14T03:20:08.854Z,50.79
2018-09-14T03:21:18.287Z,50.69
2018-09-14T03:22:27.988Z,50.79
2018-09-14T03:23:37.671Z,50.89
2018-09-14T03:24:47.106Z,50.98
2018-09-14T03:25:56.798Z,50.79
2018-09-14T03:27:05.941Z,50.69
2018-09-14T03:28:15.153Z,50.98
2018-09-14T03:29:24.591Z,51.07
2018-09-14T03:30:34.273Z,51.07
2018-09-14T03:31:43.708Z,51.07
2018-09-14T03:32:53.582Z,51.07
2018-09-14T03:34:02.759Z,50.69
2018-09-14T03:35:12.439Z,50.69
2018-09-14T03:36:22.119Z,50.79
2018-09-14T03:37:31.082Z,50.69
2018-09-14T03:38:40.512Z,50.59
2018-09-14T03:39:49.450Z,50.69
2018-09-14T03:40:58.882Z,50.69
2018-09-14T03:42:08.038Z,50.79
2018-09-14T03:43:17.198Z,50.79
2018-09-14T03:44:27.144Z,50.69
2018-09-14T03:45:36.552Z,50.79
2018-09-14T03:46:46.507Z,50.89
2018-09-14T03:47:55.678Z,50.89
2018-09-14T03:49:05.636Z,50.69
2018-09-14T03:50:14.799Z,50.69
2018-09-14T03:51:24.532Z,50.89
2018-09-14T03:52:34.228Z,50.4
2018-09-14T03:53:43.658Z,50.31
2018-09-14T03:54:53.088Z,50.69
2018-09-14T03:56:02.777Z,50.31
2018-09-14T03:57:12.817Z,50.98
2018-09-14T03:58:22.025Z,50.21
2018-09-14T03:59:31.470Z,50.59
2018-09-14T04:00:40.913Z,50.59
2018-09-14T04:01:50.648Z,50.59
2018-09-14T04:03:00.071Z,50.59
2018-09-14T04:04:09.763Z,50.21
2018-09-14T04:05:18.417Z,50.4
2018-09-14T04:06:27.883Z,50.31
2018-09-14T04:07:37.110Z,50.31
2018-09-14T04:08:47.229Z,50.31
2018-09-14T04:09:56.916Z,50.4
2018-09-14T04:11:06.343Z,50.5
2018-09-14T04:12:15.007Z,50.31
2018-09-14T04:13:24.685Z,50.21
2018-09-14T04:14:34.156Z,50.31
2018-09-14T04:15:43.844Z,50.31
2018-09-14T04:16:53.011Z,50.31
2018-09-14T04:18:02.738Z,50.31
2018-09-14T04:19:12.699Z,50.4
2018-09-14T04:20:22.401Z,50.4
2018-09-14T04:21:31.849Z,50.21
2018-09-14T04:22:41.292Z,50.4
2018-09-14T04:23:50.501Z,50.4
2018-09-14T04:24:59.921Z,50.4
2018-09-14T04:26:09.373Z,50.4
2018-09-14T04:27:18.553Z,50.4
2018-09-14T04:28:28.576Z,50.4
2018-09-14T04:29:38.246Z,50.31
2018-09-14T04:30:47.185Z,50.4
2018-09-14T04:31:57.058Z,50.31
2018-09-14T04:33:06.768Z,50.31
2018-09-14T04:34:16.638Z,50.4
2018-09-14T04:35:25.816Z,50.31
2018-09-14T04:36:35.501Z,50.31
2018-09-14T04:37:45.195Z,50.31
2018-09-14T04:38:54.879Z,50.5
2018-09-14T04:40:04.075Z,50.4
2018-09-14T04:41:13.031Z,50.31
2018-09-14T04:42:22.981Z,50.4
2018-09-14T04:43:32.699Z,50.5
2018-09-14T04:44:42.134Z,50.21
2018-09-14T04:45:51.640Z,50.31
2018-09-14T04:47:01.076Z,50.31
2018-09-14T04:48:10.496Z,50.4
2018-09-14T04:49:20.405Z,50.31
2018-09-14T04:50:29.845Z,50.31
2018-09-14T04:51:39.286Z,50.4
2018-09-14T04:52:48.774Z,50.4
2018-09-14T04:53:58.219Z,50.21
2018-09-14T04:55:07.767Z,50.21
2018-09-14T04:56:17.448Z,50.4
2018-09-14T04:57:27.088Z,50.31
2018-09-14T04:58:37.199Z,50.5
2018-09-14T04:59:46.912Z,50.4
2018-09-14T05:00:56.876Z,50.11
2018-09-14T05:02:06.588Z,50.31
2018-09-14T05:03:16.478Z,50.21
2018-09-14T05:04:26.371Z,50.59
2018-09-14T05:05:35.830Z,50.11
2018-09-14T05:06:45.523Z,50.4
2018-09-14T05:07:54.957Z,50.01
2018-09-14T05:09:03.600Z,50.01
2018-09-14T05:10:13.286Z,50.4
2018-09-14T05:11:22.703Z,50.31
2018-09-14T05:12:31.884Z,50.11
2018-09-14T05:13:41.307Z,49.92
2018-09-14T05:14:50.219Z,50.11
2018-09-14T05:15:59.386Z,49.82
2018-09-14T05:17:08.569Z,50.21
2018-09-14T05:18:18.017Z,50.01
2018-09-14T05:19:27.721Z,50.01
2018-09-14T05:20:36.886Z,50.31
2018-09-14T05:21:46.056Z,50.31
2018-09-14T05:22:55.210Z,50.11
2018-09-14T05:24:04.386Z,49.92
2018-09-14T05:25:14.458Z,49.92
2018-09-14T05:26:23.540Z,49.92
2018-09-14T05:27:33.301Z,49.92
2018-09-14T05:28:42.735Z,50.11
2018-09-14T05:29:52.187Z,50.31
2018-09-14T05:31:01.382Z,50.11
2018-09-14T05:32:10.901Z,50.11
2018-09-14T05:33:20.375Z,50.21
2018-09-14T05:34:30.077Z,50.21
2018-09-14T05:35:39.274Z,50.11
2018-09-14T05:36:49.413Z,50.11
2018-09-14T05:37:58.848Z,50.11
2018-09-14T05:39:08.581Z,50.11
2018-09-14T05:40:17.751Z,50.01
2018-09-14T05:41:27.206Z,50.43
2018-09-14T05:42:36.658Z,50.01
2018-09-14T05:43:46.615Z,49.82
2018-09-14T05:44:55.570Z,50.31
2018-09-14T05:46:05.271Z,50.01
2018-09-14T05:47:14.970Z,50.21
2018-09-14T05:48:24.486Z,50.21
2018-09-14T05:49:34.170Z,49.85
2018-09-14T05:50:43.877Z,50.01
2018-09-14T05:51:53.036Z,49.95
2018-09-14T05:53:02.262Z,49.85
2018-09-14T05:54:11.433Z,49.82
2018-09-14T05:55:21.434Z,49.82
2018-09-14T05:56:31.146Z,49.85
2018-09-14T05:57:41.028Z,49.63
2018-09-14T05:58:50.723Z,49.75
2018-09-14T05:59:59.899Z,49.44
2018-09-14T06:01:08.816Z,49.75
2018-09-14T06:02:18.245Z,49.46
2018-09-14T06:03:27.931Z,49.73
2018-09-14T06:04:37.355Z,49.85
2018-09-14T06:05:46.790Z,49.85
2018-09-14T06:06:56.737Z,49.75
2018-09-14T06:08:05.672Z,49.75
2018-09-14T06:09:14.586Z,49.75
2018-09-14T06:10:24.286Z,49.75
2018-09-14T06:11:33.737Z,49.55
2018-09-14T06:12:43.174Z,49.55
2018-09-14T06:13:52.350Z,49.55
2018-09-14T06:15:02.781Z,49.55
2018-09-14T06:16:12.463Z,49.85
2018-09-14T06:17:21.896Z,49.55
2018-09-14T06:18:31.057Z,49.55
2018-09-14T06:19:40.483Z,49.95
2018-09-14T06:20:49.914Z,50.04
2018-09-14T06:21:59.107Z,49.95
2018-09-14T06:23:08.786Z,49.95
2018-09-14T06:24:18.264Z,49.95
2018-09-14T06:25:27.982Z,49.85
2018-09-14T06:26:37.438Z,49.95
2018-09-14T06:27:46.866Z,50.04
2018-09-14T06:28:56.293Z,49.85
2018-09-14T06:30:06.249Z,50.04
2018-09-14T06:31:15.994Z,50.04
2018-09-14T06:32:25.154Z,49.85
2018-09-14T06:33:34.852Z,50.04
2018-09-14T06:34:44.041Z,50.04
2018-09-14T06:35:52.988Z,49.95
2018-09-14T06:37:01.898Z,49.95
2018-09-14T06:38:10.949Z,50.04
2018-09-14T06:39:20.777Z,50.04
2018-09-14T06:40:29.936Z,49.95
2018-09-14T06:41:39.362Z,50.04
2018-09-14T06:42:48.615Z,50.04
2018-09-14T06:43:58.344Z,50.13
2018-09-14T06:45:07.590Z,50.04
2018-09-14T06:46:17.423Z,49.85
2018-09-14T06:47:26.875Z,49.85
2018-09-14T06:48:36.319Z,50.04
2018-09-14T06:49:45.249Z,49.95
2018-09-14T06:50:54.410Z,49.85
2018-09-14T06:52:04.334Z,49.95
2018-09-14T06:53:13.593Z,49.95
2018-09-14T06:54:23.304Z,50.04
2018-09-14T06:55:33.029Z,49.95
2018-09-14T06:56:43.022Z,50.04
2018-09-14T06:57:52.737Z,49.65
2018-09-14T06:59:02.204Z,49.95
2018-09-14T07:00:11.879Z,50.04
2018-09-14T07:01:22.416Z,50.04
2018-09-14T07:02:31.580Z,50.04
2018-09-14T07:03:41.020Z,50.04
2018-09-14T07:04:50.444Z,49.95
2018-09-14T07:06:00.171Z,50.04
2018-09-14T07:07:09.080Z,50.04
2018-09-14T07:08:18.286Z,49.65
2018-09-14T07:09:27.446Z,50.23
2018-09-14T07:10:36.609Z,49.85
2018-09-14T07:11:46.572Z,50.04
2018-09-14T07:12:56.257Z,49.95
2018-09-14T07:14:06.037Z,49.75
2018-09-14T07:15:15.463Z,50.04
2018-09-14T07:16:24.424Z,49.95
2018-09-14T07:17:33.846Z,50.04
2018-09-14T07:18:43.547Z,49.95
2018-09-14T07:19:52.978Z,49.65
2018-09-14T07:21:02.007Z,50.04
2018-09-14T07:22:11.820Z,49.95
2018-09-14T07:23:21.870Z,49.95
2018-09-14T07:24:30.880Z,50.04
2018-09-14T07:25:40.539Z,49.95
2018-09-14T07:26:50.587Z,50.04
2018-09-14T07:28:00.324Z,49.95
2018-09-14T07:29:10.146Z,49.95
2018-09-14T07:30:19.346Z,50.13
2018-09-14T07:31:28.925Z,49.75
2018-09-14T07:32:38.540Z,49.95
2018-09-14T07:33:48.017Z,50.04
2018-09-14T07:34:57.690Z,49.95
2018-09-14T07:36:07.385Z,49.95
2018-09-14T07:37:17.086Z,49.95
2018-09-14T07:38:26.056Z,50.04
2018-09-14T07:39:35.477Z,49.95
2018-09-14T07:40:44.134Z,50.04
2018-09-14T07:41:53.816Z,49.95
2018-09-14T07:43:03.247Z,49.95
2018-09-14T07:44:12.934Z,49.95
2018-09-14T07:45:21.873Z,49.95
2018-09-14T07:46:31.565Z,49.95
2018-09-14T07:47:40.752Z,49.95
2018-09-14T07:48:50.719Z,49.85
2018-09-14T07:49:59.890Z,49.85
2018-09-14T07:51:09.345Z,49.95
2018-09-14T07:52:19.077Z,49.85
2018-09-14T07:53:28.526Z,49.85
2018-09-14T07:54:37.708Z,49.85
2018-09-14T07:55:47.420Z,49.65
2018-09-14T07:56:57.075Z,49.95
2018-09-14T07:58:06.496Z,49.55
2018-09-14T07:59:15.404Z,49.46
2018-09-14T08:00:24.593Z,49.55
2018-09-14T08:01:34.029Z,49.55
2018-09-14T08:02:43.720Z,49.65
2018-09-14T08:03:52.890Z,49.55
2018-09-14T08:05:02.846Z,49.46
2018-09-14T08:06:12.190Z,49.85
2018-09-14T08:07:21.889Z,49.55
2018-09-14T08:08:31.081Z,49.55
2018-09-14T08:09:40.239Z,49.46
2018-09-14T08:10:49.798Z,49.85
2018-09-14T08:11:59.413Z,49.55
2018-09-14T08:13:09.169Z,49.55
2018-09-14T08:14:19.311Z,49.55
2018-09-14T08:15:29.018Z,49.55
2018-09-14T08:16:39.007Z,49.46
2018-09-14T08:17:49.433Z,49.55
2018-09-14T08:18:58.888Z,49.46
2018-09-14T08:20:08.749Z,49.46
2018-09-14T08:21:18.914Z,49.46
2018-09-14T08:22:29.173Z,49.46
2018-09-14T08:23:38.690Z,49.46
2018-09-14T08:24:48.226Z,49.27
2018-09-14T08:25:57.670Z,49.46
2018-09-14T08:27:07.193Z,49.27
2018-09-14T08:28:17.200Z,49.27
2018-09-14T08:29:26.122Z,49.37
2018-09-14T08:30:35.293Z,49.27
2018-09-14T08:31:45.025Z,49.37
2018-09-14T08:32:53.944Z,49.46
2018-09-14T08:34:03.704Z,49.55
2018-09-14T08:35:13.669Z,49.55
2018-09-14T08:36:23.411Z,49.46
2018-09-14T08:37:32.851Z,49.55
2018-09-14T08:38:42.029Z,49.46
2018-09-14T08:39:51.453Z,49.55
2018-09-14T08:41:00.370Z,49.27
2018-09-14T08:42:10.053Z,49.65
2018-09-14T08:43:19.488Z,49.55
2018-09-14T08:44:28.705Z,49.55
2018-09-14T08:45:38.131Z,49.65
2018-09-14T08:46:47.072Z,49.55
2018-09-14T08:47:56.453Z,49.55
2018-09-14T08:49:06.210Z,49.46
2018-09-14T08:50:15.940Z,49.55
2018-09-14T08:51:25.137Z,49.55
2018-09-14T08:52:34.140Z,49.55
2018-09-14T08:53:44.515Z,49.65
2018-09-14T08:54:53.772Z,49.65
2018-09-14T08:56:03.236Z,49.55
2018-09-14T08:57:12.177Z,49.55
2018-09-14T08:58:20.913Z,49.55
2018-09-14T08:59:30.108Z,49.55
2018-09-14T09:00:39.041Z,49.55
2018-09-14T09:01:48.772Z,49.55
2018-09-14T09:02:57.708Z,49.55
2018-09-14T09:04:07.732Z,49.55
2018-09-14T09:05:16.667Z,49.55
2018-09-14T09:06:25.859Z,49.65
2018-09-14T09:07:35.272Z,49.55
2018-09-14T09:08:44.965Z,49.65
2018-09-14T09:09:54.659Z,49.65
2018-09-14T09:11:03.823Z,49.65
2018-09-14T09:12:12.995Z,49.65
2018-09-14T09:13:22.777Z,49.65
2018-09-14T09:14:32.465Z,49.75
2018-09-14T09:15:42.188Z,49.27
2018-09-14T09:16:51.614Z,49.27
2018-09-14T09:18:00.810Z,49.65
2018-09-14T09:19:10.528Z,49.65
2018-09-14T09:20:20.440Z,49.55
2018-09-14T09:21:29.868Z,49.17
2018-09-14T09:22:39.566Z,49.27
2018-09-14T09:23:48.990Z,49.27
2018-09-14T09:24:57.895Z,49.27
2018-09-14T09:26:06.824Z,49.27
2018-09-14T09:27:16.052Z,49.27
2018-09-14T09:28:25.743Z,49.17
2018-09-14T09:29:35.399Z,49.27
2018-09-14T09:30:44.371Z,49.27
2018-09-14T09:31:53.640Z,49.46
2018-09-14T09:33:03.140Z,49.27
2018-09-14T09:34:12.587Z,49.55
2018-09-14T09:35:22.085Z,49.46
2018-09-14T09:36:31.265Z,49.17
2018-09-14T09:37:40.680Z,49.07
2018-09-14T09:38:50.359Z,49.17
2018-09-14T09:39:59.789Z,49.37
2018-09-14T09:41:09.069Z,49.17
2018-09-14T09:42:19.039Z,49.17
2018-09-14T09:43:28.935Z,49.17
2018-09-14T09:44:39.629Z,49.07
2018-09-14T09:45:49.110Z,49.17
2018-09-14T09:46:58.692Z,49.07
2018-09-14T09:48:08.377Z,49.17
2018-09-14T09:49:17.316Z,49.07
2018-09-14T09:50:26.993Z,49.07
2018-09-14T09:51:36.694Z,49.07
2018-09-14T09:52:46.116Z,49.07
2018-09-14T09:53:55.298Z,49.17
2018-09-14T09:55:05.021Z,49.07
2018-09-14T09:56:14.714Z,49.17
2018-09-14T09:57:23.645Z,49.07
2018-09-14T09:58:33.089Z,49.07
2018-09-14T09:59:42.280Z,49.07
2018-09-14T10:00:51.773Z,49.37
2018-09-14T10:02:01.207Z,49.27
2018-09-14T10:03:10.375Z,49.37
2018-09-14T10:04:19.817Z,49.46
2018-09-14T10:05:28.996Z,49.17
2018-09-14T10:06:38.183Z,49.17
2018-09-14T10:07:48.125Z,49.17
2018-09-14T10:08:57.071Z,49.27
2018-09-14T10:10:06.783Z,49.46
2018-09-14T10:11:16.230Z,49.17
2018-09-14T10:12:25.670Z,49.46
2018-09-14T10:13:34.594Z,49.07
2018-09-14T10:14:44.226Z,49.07
2018-09-14T10:15:53.672Z,49.46
2018-09-14T10:17:03.369Z,49.46
2018-09-14T10:18:12.808Z,48.97
2018-09-14T10:19:21.740Z,48.97
2018-09-14T10:20:31.242Z,49.17
2018-09-14T10:21:41.107Z,49.17
2018-09-14T10:22:50.852Z,48.97
2018-09-14T10:24:00.029Z,48.88
2018-09-14T10:25:09.464Z,49.17
2018-09-14T10:26:19.425Z,48.97
2018-09-14T10:27:28.940Z,49.27
2018-09-14T10:28:38.120Z,48.88
2018-09-14T10:29:47.594Z,49.37
2018-09-14T10:30:56.492Z,48.97
2018-09-14T10:32:06.199Z,49.07
2018-09-14T10:33:15.664Z,49
2018-09-14T10:34:25.344Z,48.9
2018-09-14T10:35:35.050Z,48.69
2018-09-14T10:36:44.989Z,49.07
2018-09-14T10:37:54.691Z,48.88
2018-09-14T10:39:04.172Z,49.1
2018-09-14T10:40:13.336Z,48.88
2018-09-14T10:41:22.539Z,48.97
2018-09-14T10:42:31.965Z,48.88
2018-09-14T10:43:41.159Z,48.97
2018-09-14T10:44:50.121Z,48.9
2018-09-14T10:45:59.579Z,48.88
2018-09-14T10:47:08.742Z,48.88
2018-09-14T10:48:17.399Z,48.88
2018-09-14T10:49:26.836Z,48.81
2018-09-14T10:50:36.267Z,48.97
2018-09-14T10:51:45.680Z,48.88
2018-09-14T10:52:54.584Z,49.07
2018-09-14T10:54:04.343Z,49.07
2018-09-14T10:55:13.313Z,48.97
2018-09-14T10:56:23.257Z,48.97
2018-09-14T10:57:32.973Z,48.97
2018-09-14T10:58:42.657Z,48.97
2018-09-14T10:59:52.379Z,48.97
2018-09-14T11:01:02.314Z,48.88
2018-09-14T11:02:11.724Z,48.97
2018-09-14T11:03:21.145Z,48.88
2018-09-14T11:04:30.194Z,49
2018-09-14T11:05:39.450Z,48.81
2018-09-14T11:06:49.146Z,48.97
2018-09-14T11:07:58.996Z,48.97
2018-09-14T11:09:08.962Z,49.07
2018-09-14T11:10:18.634Z,49.07
2018-09-14T11:11:28.064Z,48.79
2018-09-14T11:12:37.666Z,49.07
2018-09-14T11:13:47.798Z,49.17
2018-09-14T11:14:56.974Z,49.07
2018-09-14T11:16:06.683Z,48.97
2018-09-14T11:17:16.135Z,49.17
2018-09-14T11:18:26.109Z,48.79
2018-09-14T11:19:35.611Z,48.97
2018-09-14T11:20:44.572Z,49.07
2018-09-14T11:21:53.996Z,49.17
2018-09-14T11:23:03.412Z,49.27
2018-09-14T11:24:12.843Z,48.97
2018-09-14T11:25:21.864Z,48.97
2018-09-14T11:26:31.747Z,48.88
2018-09-14T11:27:41.243Z,48.88
2018-09-14T11:28:50.790Z,48.97
2018-09-14T11:29:59.976Z,48.59
2018-09-14T11:31:09.661Z,49.07
2018-09-14T11:32:19.687Z,48.88
2018-09-14T11:33:29.735Z,48.88
2018-09-14T11:34:38.929Z,48.79
2018-09-14T11:35:48.093Z,48.97
2018-09-14T11:36:56.999Z,48.97
2018-09-14T11:38:06.805Z,49.07
2018-09-14T11:39:16.378Z,48.88
2018-09-14T11:40:25.801Z,48.88
2018-09-14T11:41:35.782Z,48.88
2018-09-14T11:42:44.938Z,49.07
2018-09-14T11:43:54.117Z,48.88
2018-09-14T11:45:03.944Z,48.79
2018-09-14T11:46:14.203Z,48.9
2018-09-14T11:47:24.603Z,48.97
2018-09-14T11:48:34.275Z,48.88
2018-09-14T11:49:43.726Z,48.97
2018-09-14T11:50:53.153Z,48.9
2018-09-14T11:52:02.109Z,48.97
2018-09-14T11:53:11.026Z,48.97
2018-09-14T11:54:20.773Z,48.88
2018-09-14T11:55:30.512Z,48.59
2018-09-14T11:56:40.038Z,48.61
2018-09-14T11:57:49.536Z,48.79
2018-09-14T11:58:58.974Z,48.79
2018-09-14T12:00:08.692Z,49.37
2018-09-14T12:01:18.499Z,48.59
2018-09-14T12:02:28.632Z,48.79
2018-09-14T12:03:38.148Z,48.79
2018-09-14T12:04:47.639Z,48.59
2018-09-14T12:05:57.128Z,48.59
2018-09-14T12:07:06.579Z,48.49
2018-09-14T12:08:16.363Z,48.59
2018-09-14T12:09:25.875Z,48.59
2018-09-14T12:10:35.077Z,49.37
2018-09-14T12:11:44.268Z,48.79
2018-09-14T12:12:53.233Z,48.49
2018-09-14T12:14:02.703Z,48.49
2018-09-14T12:15:12.423Z,48.79
2018-09-14T12:16:21.723Z,48.71
2018-09-14T12:17:31.224Z,48.79
2018-09-14T12:18:41.016Z,48.88
2018-09-14T12:19:50.186Z,48.79
2018-09-14T12:20:59.174Z,48.69
2018-09-14T12:22:08.977Z,48.59
2018-09-14T12:23:18.628Z,48.69
2018-09-14T12:24:28.354Z,48.71
2018-09-14T12:25:37.885Z,48.88
2018-09-14T12:26:47.100Z,48.88
2018-09-14T12:27:56.833Z,48.61
2018-09-14T12:29:06.820Z,49
2018-09-14T12:30:15.520Z,48.79
2018-09-14T12:31:25.235Z,48.69
2018-09-14T12:32:34.773Z,48.97
2018-09-14T12:33:43.956Z,49.1
2018-09-14T12:34:53.661Z,49.07
2018-09-14T12:36:02.848Z,48.97
2018-09-14T12:37:12.599Z,48.97
2018-09-14T12:38:22.056Z,49
2018-09-14T12:39:31.310Z,48.49
2018-09-14T12:40:40.796Z,48.71
2018-09-14T12:41:50.748Z,48.88
2018-09-14T12:43:00.443Z,49
2018-09-14T12:44:09.938Z,48.71
2018-09-14T12:45:19.417Z,48.81
2018-09-14T12:46:28.890Z,48.23
2018-09-14T12:47:37.855Z,48.81
2018-09-14T12:48:47.764Z,48.9
2018-09-14T12:49:57.236Z,48.71
2018-09-14T12:51:06.414Z,48.9
2018-09-14T12:52:16.171Z,48.9
2018-09-14T12:53:25.261Z,48.61
2018-09-14T12:54:34.500Z,48.71
2018-09-14T12:55:43.746Z,48.52
2018-09-14T12:56:53.438Z,48.52
2018-09-14T12:58:02.896Z,48.61
2018-09-14T12:59:12.718Z,48.52
2018-09-14T13:00:21.961Z,48.71
2018-09-14T13:01:31.456Z,48.69
2018-09-14T13:02:40.813Z,48.61
2018-09-14T13:03:50.255Z,48.61
2018-09-14T13:04:59.495Z,48.52
2018-09-14T13:06:09.000Z,48.61
2018-09-14T13:07:18.710Z,48.52
2018-09-14T13:08:28.155Z,48.52
2018-09-14T13:09:37.676Z,48.39
2018-09-14T13:10:46.678Z,48.71
2018-09-14T13:11:56.310Z,48.52
2018-09-14T13:13:05.812Z,48.52
2018-09-14T13:14:15.585Z,48.52
2018-09-14T13:15:25.314Z,48.32
2018-09-14T13:16:34.875Z,48.71
2018-09-14T13:17:44.411Z,48.71
2018-09-14T13:18:54.176Z,48.71
2018-09-14T13:20:04.737Z,48.61
2018-09-14T13:21:14.449Z,48.61
2018-09-14T13:22:23.978Z,48.61
2018-09-14T13:23:33.215Z,48.52
2018-09-14T13:24:42.680Z,48.61
2018-09-14T13:25:52.148Z,48.61
2018-09-14T13:27:01.333Z,48.61
2018-09-14T13:28:10.815Z,48.81
2018-09-14T13:29:20.807Z,48.9
2018-09-14T13:30:30.362Z,48.52
2018-09-14T13:31:40.497Z,48.42
2018-09-14T13:32:49.236Z,48.52
2018-09-14T13:33:58.678Z,48.32
2018-09-14T13:35:08.643Z,48.81
2018-09-14T13:36:17.546Z,48.42
2018-09-14T13:37:27.308Z,48.52
2018-09-14T13:38:36.482Z,48.71
2018-09-14T13:39:45.901Z,48.71
2018-09-14T13:40:55.840Z,48.81
2018-09-14T13:42:05.341Z,48.61
2018-09-14T13:43:15.034Z,48.71
2018-09-14T13:44:24.522Z,48.71
2018-09-14T13:45:34.461Z,48.42
2018-09-14T13:46:44.151Z,48.61
2018-09-14T13:47:53.838Z,48.61
2018-09-14T13:49:03.011Z,48.52
2018-09-14T13:50:12.279Z,48.52
2018-09-14T13:51:21.982Z,48.32
2018-09-14T13:52:31.149Z,48.61
2018-09-14T13:53:40.569Z,48.71
2018-09-14T13:54:50.241Z,48.71
2018-09-14T13:55:59.157Z,48.32
2018-09-14T13:57:08.829Z,48.71
2018-09-14T13:58:17.766Z,48.52
2018-09-14T13:59:26.685Z,48.71
2018-09-14T14:00:36.201Z,48.61
2018-09-14T14:01:45.943Z,48.61
2018-09-14T14:02:55.431Z,48.61
2018-09-14T14:04:04.637Z,48.71
2018-09-14T14:05:13.925Z,48.61
2018-09-14T14:06:22.855Z,48.52
2018-09-14T14:07:32.290Z,48.52
2018-09-14T14:08:41.472Z,48.71
2018-09-14T14:09:51.460Z,48.61
2018-09-14T14:11:00.954Z,48.61
2018-09-14T14:12:09.888Z,48.42
2018-09-14T14:13:19.064Z,48.52
2018-09-14T14:14:28.759Z,48.42
2018-09-14T14:15:37.668Z,48.42
2018-09-14T14:16:47.465Z,48.13
2018-09-14T14:17:57.756Z,48.52
2018-09-14T14:19:06.915Z,48.32
2018-09-14T14:20:16.125Z,48.13
2018-09-14T14:21:26.063Z,48.13
2018-09-14T14:22:35.507Z,48.23
2018-09-14T14:23:44.772Z,48.32
2018-09-14T14:24:53.740Z,48.13
2018-09-14T14:26:03.431Z,48.13
2018-09-14T14:27:13.129Z,48.32
2018-09-14T14:28:22.689Z,48.23
2018-09-14T14:29:32.165Z,48.42
2018-09-14T14:30:41.853Z,48.13
2018-09-14T14:31:51.280Z,48.23
2018-09-14T14:33:00.972Z,48.32
2018-09-14T14:34:10.166Z,48.32
2018-09-14T14:35:19.614Z,48.13
2018-09-14T14:36:28.804Z,48.42
2018-09-14T14:37:38.243Z,48.13
2018-09-14T14:38:47.945Z,48.32
2018-09-14T14:39:57.123Z,48.42
2018-09-14T14:41:06.565Z,48.42
2018-09-14T14:42:16.093Z,48.42
2018-09-14T14:43:25.541Z,48.13
2018-09-14T14:44:34.983Z,48.13
2018-09-14T14:45:44.671Z,48.23
2018-09-14T14:46:53.853Z,48.32
2018-09-14T14:48:03.547Z,48.13
2018-09-14T14:49:12.530Z,48.13
2018-09-14T14:50:21.714Z,48.13
2018-09-14T14:51:30.608Z,48.23
2018-09-14T14:52:40.031Z,48.23
2018-09-14T14:53:49.707Z,48.32
2018-09-14T14:54:59.132Z,48.23
2018-09-14T14:56:08.827Z,48.13
2018-09-14T14:57:18.407Z,48.32
2018-09-14T14:58:27.871Z,48.13
2018-09-14T14:59:37.059Z,48.13